Time;durP1;ratioP1;P1;durP2;ratioP2;P2;SDS_P1;SDS_P2;PMS_P1;PMS_P2;Temp;Humidity;BMP_temperature;BMP_pressure;BME280_temperature;BME280_humidity;BME280_pressure;Samples;Min_cycle;Max_cycle;Signal;HPM_P1;HPM_P2
2023/09/12 00:00:49;;;;;;;38.40;28.20;;;20.00;99.90;;;;;;5050001;28;20395;-74
2023/09/12 00:03:18;;;;;;;39.60;29.35;;;19.90;99.90;;;;;;5049731;28;20045;-74
2023/09/12 00:05:51;;;;;;;39.83;28.50;;;19.90;99.90;;;;;;5049816;28;20122;-74
2023/09/12 00:08:16;;;;;;;39.03;28.65;;;19.90;99.90;;;;;;5051228;28;20569;-73
2023/09/12 00:10:42;;;;;;;39.78;27.60;;;19.90;99.90;;;;;;5054826;28;20056;-74
2023/09/12 00:13:08;;;;;;;41.05;29.15;;;19.90;99.90;;;;;;5053895;28;20041;-73
2023/09/12 00:15:33;;;;;;;41.53;28.92;;;19.90;99.90;;;;;;5053506;28;20044;-74
2023/09/12 00:17:59;;;;;;;42.10;28.23;;;19.90;99.90;;;;;;5054717;28;20040;-74
2023/09/12 00:20:24;;;;;;;41.47;28.83;;;19.90;99.90;;;;;;5053197;28;20036;-74
2023/09/12 00:22:50;;;;;;;37.38;28.20;;;19.90;99.90;;;;;;5053377;28;20041;-74
2023/09/12 00:25:16;;;;;;;37.15;27.70;;;20.00;99.90;;;;;;5053170;28;20080;-73
2023/09/12 00:27:41;;;;;;;43.90;30.02;;;20.00;99.90;;;;;;5052864;28;20044;-74
2023/09/12 00:30:07;;;;;;;38.90;27.95;;;20.00;99.90;;;;;;5053098;28;20041;-74
2023/09/12 00:32:33;;;;;;;36.65;27.13;;;20.00;99.90;;;;;;5052241;28;20040;-74
2023/09/12 00:34:58;;;;;;;35.38;26.70;;;20.00;99.90;;;;;;5052383;28;20427;-74
2023/09/12 00:37:24;;;;;;;45.13;29.60;;;20.00;99.90;;;;;;5053600;28;20563;-74
2023/09/12 00:39:50;;;;;;;40.30;27.15;;;20.00;99.90;;;;;;5052789;28;20579;-74
2023/09/12 00:42:16;;;;;;;38.42;28.35;;;20.00;99.90;;;;;;5054524;28;20496;-74
2023/09/12 00:44:41;;;;;;;41.22;27.73;;;20.00;99.90;;;;;;5052816;28;20097;-75
2023/09/12 00:47:09;;;;;;;39.85;26.00;;;20.00;99.90;;;;;;5052884;28;20041;-74
2023/09/12 00:49:35;;;;;;;35.17;28.10;;;20.00;99.90;;;;;;5052953;28;20099;-74
2023/09/12 00:52:02;;;;;;;43.25;29.15;;;20.00;99.90;;;;;;5053154;28;20492;-74
2023/09/12 00:54:27;;;;;;;38.13;26.00;;;19.90;99.90;;;;;;5054027;28;20036;-74
2023/09/12 00:56:53;;;;;;;39.25;27.80;;;19.90;99.90;;;;;;5052778;28;20411;-74
2023/09/12 00:59:20;;;;;;;38.38;26.98;;;19.90;99.90;;;;;;5053088;28;20033;-74
2023/09/12 01:01:45;;;;;;;43.33;30.55;;;19.90;99.90;;;;;;5052514;28;20067;-74
2023/09/12 01:04:11;;;;;;;40.90;28.73;;;19.80;99.90;;;;;;5052649;28;20119;-74
2023/09/12 01:06:38;;;;;;;42.70;30.20;;;19.80;99.90;;;;;;5052399;28;20080;-74
2023/09/12 01:09:04;;;;;;;43.65;28.55;;;19.70;99.90;;;;;;5052152;28;20041;-74
2023/09/12 01:11:30;;;;;;;40.33;28.23;;;19.80;99.90;;;;;;5053966;28;20134;-74
2023/09/12 01:13:56;;;;;;;39.17;28.75;;;19.70;99.90;;;;;;5052136;28;20067;-74
2023/09/12 01:16:22;;;;;;;41.90;27.88;;;19.70;99.90;;;;;;5052466;28;20044;-74
2023/09/12 01:18:48;;;;;;;39.78;26.98;;;19.70;99.90;;;;;;5052881;28;20532;-74
2023/09/12 01:21:36;;;;;;;39.33;27.95;;;19.60;99.90;;;;;;5052345;28;20041;-74
2023/09/12 01:24:23;;;;;;;39.35;27.65;;;19.70;99.90;;;;;;5053422;28;20056;-74
2023/09/12 01:27:21;;;;;;;38.13;27.42;;;19.70;99.90;;;;;;5055381;22;20531;-70
2023/09/12 01:29:50;;;;;;;36.38;27.35;;;19.70;99.90;;;;;;5031927;28;20049;-70
2023/09/12 01:32:19;;;;;;;39.28;27.17;;;19.70;99.90;;;;;;5032909;28;20425;-70
2023/09/12 01:34:45;;;;;;;41.78;30.05;;;19.70;99.90;;;;;;5033373;28;20128;-70
2023/09/12 01:37:10;;;;;;;43.10;28.52;;;19.60;99.90;;;;;;5033300;28;20073;-68
2023/09/12 01:39:36;;;;;;;41.63;28.27;;;19.60;99.90;;;;;;5033135;28;20037;-68
2023/09/12 01:42:03;;;;;;;37.67;26.55;;;19.60;99.90;;;;;;5033482;28;20029;-67
2023/09/12 01:44:30;;;;;;;40.63;29.02;;;19.60;99.90;;;;;;5033219;28;20124;-68
2023/09/12 01:47:00;;;;;;;40.90;28.60;;;19.60;99.90;;;;;;5032083;28;20041;-68
2023/09/12 01:49:28;;;;;;;36.17;28.42;;;19.60;99.90;;;;;;5032822;28;20048;-68
2023/09/12 01:51:54;;;;;;;40.20;28.50;;;19.50;99.90;;;;;;5031686;28;20046;-68
2023/09/12 01:54:22;;;;;;;39.65;28.50;;;19.50;99.90;;;;;;5033232;28;20381;-68
2023/09/12 01:56:48;;;;;;;43.70;29.88;;;19.40;99.90;;;;;;5033113;28;20069;-68
2023/09/12 01:59:13;;;;;;;37.92;26.95;;;19.40;99.90;;;;;;5032865;28;20504;-68
2023/09/12 02:01:39;;;;;;;38.30;27.80;;;19.40;99.90;;;;;;5033011;28;20037;-68
2023/09/12 02:04:08;;;;;;;41.08;29.42;;;19.40;99.90;;;;;;5032980;28;20033;-68
2023/09/12 02:06:34;;;;;;;42.05;29.08;;;19.50;99.90;;;;;;5032771;28;20072;-68
2023/09/12 02:09:00;;;;;;;41.50;27.67;;;19.50;99.90;;;;;;5032715;28;20187;-68
2023/09/12 02:11:27;;;;;;;41.20;29.27;;;19.50;99.90;;;;;;5032873;28;20124;-68
2023/09/12 02:13:52;;;;;;;43.53;29.40;;;19.50;99.90;;;;;;5032737;28;20037;-68
2023/09/12 02:16:18;;;;;;;47.38;31.27;;;19.50;99.90;;;;;;5032596;28;20625;-68
2023/09/12 02:18:44;;;;;;;40.33;29.63;;;19.50;99.90;;;;;;5032175;28;20033;-68
2023/09/12 02:21:09;;;;;;;45.35;29.83;;;19.50;99.90;;;;;;5031328;28;20034;-70
2023/09/12 02:23:35;;;;;;;37.55;27.17;;;19.50;99.90;;;;;;5032672;28;20037;-70
2023/09/12 02:26:00;;;;;;;41.95;28.85;;;19.50;99.90;;;;;;5032391;28;20092;-70
2023/09/12 02:28:26;;;;;;;42.10;29.58;;;19.40;99.90;;;;;;5032232;28;20108;-70
2023/09/12 02:30:52;;;;;;;39.42;28.70;;;19.40;99.90;;;;;;5031841;28;20037;-70
2023/09/12 02:33:17;;;;;;;39.67;27.10;;;19.40;99.90;;;;;;5032274;28;20045;-70
2023/09/12 02:35:43;;;;;;;37.60;26.75;;;19.40;99.90;;;;;;5032475;28;20051;-70
2023/09/12 02:38:09;;;;;;;40.67;28.52;;;19.30;99.90;;;;;;5032199;28;20045;-70
2023/09/12 02:40:34;;;;;;;39.17;27.48;;;19.30;99.90;;;;;;5032063;28;20043;-70
2023/09/12 02:43:00;;;;;;;40.30;27.98;;;19.20;99.90;;;;;;5032223;28;20041;-70
2023/09/12 02:45:25;;;;;;;43.92;28.60;;;19.20;99.90;;;;;;5032151;28;20087;-70
2023/09/12 02:47:51;;;;;;;39.42;27.45;;;19.10;99.90;;;;;;5032050;28;20044;-70
2023/09/12 02:50:16;;;;;;;41.72;29.15;;;19.20;99.90;;;;;;5031769;28;20124;-70
2023/09/12 02:52:42;;;;;;;44.85;29.10;;;19.20;99.90;;;;;;5032191;28;20041;-68
2023/09/12 02:55:08;;;;;;;40.45;28.05;;;19.10;99.90;;;;;;5032075;28;20033;-68
2023/09/12 02:57:33;;;;;;;41.53;29.35;;;19.20;99.90;;;;;;5032053;28;20037;-68
2023/09/12 02:59:59;;;;;;;40.47;28.77;;;19.30;99.90;;;;;;5031626;28;20081;-68
2023/09/12 03:02:25;;;;;;;45.00;31.52;;;19.30;99.90;;;;;;5030521;28;20124;-68
2023/09/12 03:04:50;;;;;;;45.38;28.70;;;19.30;99.90;;;;;;5032060;28;20049;-68
2023/09/12 03:07:16;;;;;;;43.08;29.65;;;19.30;99.90;;;;;;5031890;28;20500;-68
2023/09/12 03:09:41;;;;;;;45.58;31.88;;;19.30;99.90;;;;;;5030487;28;20033;-68
2023/09/12 03:12:07;;;;;;;46.20;31.55;;;19.30;99.90;;;;;;5031841;28;20385;-68
2023/09/12 03:14:33;;;;;;;42.90;29.67;;;19.30;99.90;;;;;;5031732;28;20040;-68
2023/09/12 03:16:58;;;;;;;45.30;30.23;;;19.30;99.90;;;;;;5030394;28;20071;-68
2023/09/12 03:19:24;;;;;;;42.03;30.50;;;19.30;99.90;;;;;;5031495;28;20044;-68
2023/09/12 03:21:49;;;;;;;46.50;30.25;;;19.30;99.90;;;;;;5031895;28;20033;-69
2023/09/12 03:24:18;;;;;;;43.03;28.90;;;19.30;99.90;;;;;;5031832;28;20507;-70
2023/09/12 03:26:43;;;;;;;44.83;29.50;;;19.30;99.90;;;;;;5031455;28;20052;-70
2023/09/12 03:29:09;;;;;;;43.58;29.98;;;19.30;99.90;;;;;;5031265;28;20046;-70
2023/09/12 03:31:35;;;;;;;41.60;27.33;;;19.30;99.90;;;;;;5031557;28;20053;-70
2023/09/12 03:34:01;;;;;;;44.20;28.08;;;19.30;99.90;;;;;;5031570;28;20492;-70
2023/09/12 03:36:26;;;;;;;45.22;30.92;;;19.30;99.90;;;;;;5031668;28;20095;-70
2023/09/12 03:38:52;;;;;;;56.20;31.92;;;19.20;99.90;;;;;;5031236;28;20041;-70
2023/09/12 03:41:18;;;;;;;42.55;29.67;;;19.20;99.90;;;;;;5031626;28;20455;-70
2023/09/12 03:43:43;;;;;;;44.75;28.88;;;19.20;99.90;;;;;;5035400;28;20439;-70
2023/09/12 03:46:09;;;;;;;39.35;27.67;;;19.20;99.90;;;;;;5035370;28;20080;-70
2023/09/12 03:48:36;;;;;;;42.15;28.08;;;19.30;99.90;;;;;;5035251;28;20116;-70
2023/09/12 03:51:03;;;;;;;44.40;29.33;;;19.20;99.90;;;;;;5035611;28;20130;-70
2023/09/12 03:53:29;;;;;;;47.10;28.75;;;19.20;99.90;;;;;;5035495;28;20049;-70
2023/09/12 03:55:55;;;;;;;41.53;28.10;;;19.30;99.90;;;;;;5035334;28;20400;-70
2023/09/12 03:58:21;;;;;;;43.38;29.50;;;19.30;99.90;;;;;;5033748;28;20091;-70
2023/09/12 04:00:46;;;;;;;45.00;28.50;;;19.20;99.90;;;;;;5033836;28;20116;-70
2023/09/12 04:03:12;;;;;;;43.42;28.42;;;19.30;99.90;;;;;;5035414;28;20490;-70
2023/09/12 04:05:38;;;;;;;40.70;27.50;;;19.20;99.90;;;;;;5035057;28;20583;-70
2023/09/12 04:08:03;;;;;;;37.67;26.83;;;19.20;99.90;;;;;;5033927;28;20033;-70
2023/09/12 04:10:29;;;;;;;40.22;29.02;;;19.20;99.90;;;;;;5034741;28;20512;-70
2023/09/12 04:12:55;;;;;;;41.30;27.98;;;19.20;99.90;;;;;;5034965;28;20037;-70
2023/09/12 04:15:20;;;;;;;51.65;29.55;;;19.10;99.90;;;;;;5034873;28;20034;-70
2023/09/12 04:17:46;;;;;;;46.00;31.02;;;19.00;99.90;;;;;;5034815;28;20033;-70
2023/09/12 04:20:13;;;;;;;52.70;31.25;;;18.90;99.90;;;;;;5034699;28;20043;-70
2023/09/12 04:22:40;;;;;;;43.50;30.58;;;18.90;99.90;;;;;;5034946;28;20107;-70
2023/09/12 04:25:06;;;;;;;43.90;30.08;;;18.80;99.90;;;;;;5034646;28;20064;-70
2023/09/12 04:27:32;;;;;;;41.83;28.52;;;18.80;99.90;;;;;;5034715;28;20485;-70
2023/09/12 04:29:57;;;;;;;39.30;27.83;;;18.70;99.90;;;;;;5034252;28;20045;-70
2023/09/12 04:32:23;;;;;;;40.00;28.90;;;18.70;99.90;;;;;;5034793;28;20045;-70
2023/09/12 04:34:51;;;;;;;41.97;29.38;;;18.60;99.90;;;;;;5034677;28;20046;-70
2023/09/12 04:37:17;;;;;;;40.05;28.92;;;18.60;99.90;;;;;;5033485;28;20037;-70
2023/09/12 04:39:43;;;;;;;39.33;28.27;;;18.60;99.90;;;;;;5034062;28;20757;-70
2023/09/12 04:42:09;;;;;;;35.35;26.48;;;18.60;99.90;;;;;;5034431;28;20120;-70
2023/09/12 04:44:41;;;;;;;32.55;25.70;;;18.50;99.90;;;;;;5034270;28;20172;-70
2023/09/12 04:47:08;;;;;;;31.73;24.88;;;18.50;99.90;;;;;;5034328;28;20472;-70
2023/09/12 04:49:33;;;;;;;31.65;25.42;;;18.50;99.90;;;;;;5033030;28;20405;-70
2023/09/12 04:51:59;;;;;;;68.40;27.20;;;18.40;99.90;;;;;;5034203;28;20060;-70
2023/09/12 04:54:25;;;;;;;31.02;25.60;;;18.40;99.90;;;;;;5033536;28;20112;-70
2023/09/12 04:56:50;;;;;;;31.90;26.15;;;18.30;99.90;;;;;;5032725;28;20049;-70
2023/09/12 04:59:16;;;;;;;28.75;24.13;;;18.30;99.90;;;;;;5033748;28;20045;-70
2023/09/12 05:01:42;;;;;;;31.63;24.08;;;18.20;99.90;;;;;;5033000;28;20073;-70
2023/09/12 05:04:07;;;;;;;28.45;24.00;;;18.20;99.90;;;;;;5031148;28;20034;-70
2023/09/12 05:06:34;;;;;;;32.97;25.02;;;18.20;99.90;;;;;;5033517;28;20037;-70
2023/09/12 05:08:59;;;;;;;30.55;25.23;;;18.20;99.90;;;;;;5033424;28;20080;-70
2023/09/12 05:11:25;;;;;;;30.55;24.83;;;18.20;99.90;;;;;;5033750;28;20045;-70
2023/09/12 05:13:51;;;;;;;27.13;23.13;;;18.30;99.90;;;;;;5033366;28;20037;-70
2023/09/12 05:16:16;;;;;;;28.52;23.65;;;18.30;99.90;;;;;;5033498;28;20113;-70
2023/09/12 05:18:42;;;;;;;28.92;23.45;;;18.20;99.90;;;;;;5033491;28;20034;-70
2023/09/12 05:21:08;;;;;;;30.23;24.92;;;18.20;99.90;;;;;;5032654;28;20063;-70
2023/09/12 05:23:33;;;;;;;35.67;24.50;;;18.10;99.90;;;;;;5033765;28;20504;-70
2023/09/12 05:25:59;;;;;;;29.48;24.15;;;18.10;99.90;;;;;;5033344;28;20065;-70
2023/09/12 05:28:25;;;;;;;30.83;24.92;;;18.20;99.90;;;;;;5033129;28;20116;-70
2023/09/12 05:30:50;;;;;;;29.38;24.48;;;18.10;99.90;;;;;;5032511;28;20098;-70
2023/09/12 05:33:16;;;;;;;27.73;24.42;;;18.20;99.90;;;;;;5032449;28;20064;-70
2023/09/12 05:35:41;;;;;;;27.95;23.58;;;18.10;99.90;;;;;;5033263;28;20042;-70
2023/09/12 05:38:07;;;;;;;25.55;22.60;;;18.10;99.90;;;;;;5031932;28;20048;-70
2023/09/12 05:40:33;;;;;;;29.13;23.13;;;18.10;99.90;;;;;;5031740;28;20124;-70
2023/09/12 05:42:58;;;;;;;31.85;24.58;;;18.10;99.90;;;;;;5032334;28;20158;-70
2023/09/12 05:45:24;;;;;;;37.75;25.15;;;18.10;99.90;;;;;;5033498;28;20139;-70
2023/09/12 05:47:50;;;;;;;42.88;29.05;;;18.10;99.90;;;;;;5032220;28;20439;-70
2023/09/12 05:50:16;;;;;;;46.60;28.92;;;18.10;99.90;;;;;;5033116;28;20048;-70
2023/09/12 05:52:42;;;;;;;53.47;32.65;;;18.10;99.90;;;;;;5033215;28;20045;-70
2023/09/12 05:55:08;;;;;;;56.47;32.55;;;18.10;99.90;;;;;;5031874;28;20060;-70
2023/09/12 05:57:34;;;;;;;55.22;33.20;;;18.20;99.90;;;;;;5032869;28;20037;-70
2023/09/12 06:00:00;;;;;;;55.45;33.78;;;18.20;99.90;;;;;;5032792;28;20515;-70
2023/09/12 06:02:27;;;;;;;56.20;32.97;;;18.20;99.90;;;;;;5015363;28;20527;-68
2023/09/12 06:04:52;;;;;;;57.75;34.05;;;18.30;99.90;;;;;;5032561;28;20037;-71
2023/09/12 06:07:19;;;;;;;60.53;36.85;;;18.30;99.90;;;;;;5031003;28;20565;-70
2023/09/12 06:09:45;;;;;;;65.70;36.00;;;18.40;99.90;;;;;;5014951;28;20401;-70
2023/09/12 06:12:10;;;;;;;65.50;36.65;;;18.40;99.90;;;;;;5032629;28;20044;-70
2023/09/12 06:14:36;;;;;;;70.95;38.42;;;18.50;99.90;;;;;;5031452;28;20045;-70
2023/09/12 06:17:01;;;;;;;74.20;39.20;;;18.60;99.90;;;;;;5033050;28;20049;-70
2023/09/12 06:19:30;;;;;;;65.78;37.25;;;18.60;99.90;;;;;;5030976;28;20037;-70
2023/09/12 06:21:56;;;;;;;67.88;37.45;;;18.70;99.90;;;;;;5031367;28;20053;-70
2023/09/12 06:24:23;;;;;;;68.20;37.50;;;18.60;99.90;;;;;;5032547;28;20037;-70
2023/09/12 06:26:48;;;;;;;68.57;39.58;;;18.70;99.90;;;;;;5031190;28;20049;-70
2023/09/12 06:29:14;;;;;;;63.70;36.95;;;18.80;99.90;;;;;;5031088;28;20556;-69
2023/09/12 06:31:43;;;;;;;60.67;37.08;;;18.80;99.90;;;;;;5032774;28;20111;-70
2023/09/12 06:34:09;;;;;;;71.90;40.30;;;18.90;99.90;;;;;;5032350;28;20481;-70
2023/09/12 06:36:35;;;;;;;67.63;38.03;;;18.90;99.90;;;;;;5030516;28;20048;-70
2023/09/12 06:39:01;;;;;;;65.88;38.22;;;18.90;99.90;;;;;;5027252;28;20064;-69
2023/09/12 06:41:27;;;;;;;69.30;39.40;;;18.90;99.90;;;;;;5031826;28;20025;-70
2023/09/12 06:43:53;;;;;;;88.80;43.58;;;18.90;99.90;;;;;;5031037;28;20658;-70
2023/09/12 06:46:19;;;;;;;71.40;40.78;;;18.90;99.90;;;;;;5031104;28;20120;-71
2023/09/12 06:48:45;;;;;;;75.30;39.28;;;18.90;99.90;;;;;;5030795;28;20129;-70
2023/09/12 06:51:11;;;;;;;82.80;42.75;;;18.90;99.90;;;;;;5014838;28;20501;-70
2023/09/12 06:53:48;;;;;;;70.43;39.85;;;19.00;99.90;;;;;;5032038;28;20044;-70
2023/09/12 06:56:21;;;;;;;74.70;38.38;;;19.00;99.90;;;;;;5032133;28;20084;-69
2023/09/12 06:58:48;;;;;;;75.88;37.28;;;19.00;99.90;;;;;;5013952;28;20448;-69
2023/09/12 07:01:13;;;;;;;73.03;38.22;;;19.10;99.90;;;;;;5031914;28;20531;-70
2023/09/12 07:03:39;;;;;;;75.38;39.88;;;19.20;99.90;;;;;;5030847;28;20088;-69
2023/09/12 07:06:05;;;;;;;68.32;37.47;;;19.20;99.90;;;;;;5030539;28;20041;-70
2023/09/12 07:08:32;;;;;;;73.88;41.15;;;19.30;99.90;;;;;;5031355;28;20048;-70
2023/09/12 07:10:58;;;;;;;74.63;41.55;;;19.30;99.90;;;;;;5030828;28;20049;-70
2023/09/12 07:13:24;;;;;;;73.30;39.80;;;19.30;99.90;;;;;;5031937;28;20045;-70
2023/09/12 07:15:50;;;;;;;68.18;38.95;;;19.30;99.90;;;;;;5031733;28;20117;-68
2023/09/12 07:18:20;;;;;;;78.93;40.30;;;19.30;99.90;;;;;;5031108;28;20044;-70
2023/09/12 07:20:45;;;;;;;69.32;37.30;;;19.30;99.90;;;;;;5031562;28;20072;-70
2023/09/12 07:23:11;;;;;;;55.28;33.78;;;19.30;99.90;;;;;;5030409;28;20500;-69
2023/09/12 07:25:41;;;;;;;55.17;34.40;;;19.20;99.90;;;;;;5054156;22;20150;-73
2023/09/12 07:28:09;;;;;;;55.65;34.13;;;19.10;99.90;;;;;;5013703;28;20068;-73
2023/09/12 07:30:37;;;;;;;52.38;32.50;;;19.10;99.90;;;;;;5031186;28;20065;-73
2023/09/12 07:33:04;;;;;;;58.25;34.25;;;19.10;99.90;;;;;;5013825;28;20057;-73
2023/09/12 07:35:30;;;;;;;56.53;32.70;;;19.10;99.90;;;;;;5031380;28;20041;-73
2023/09/12 07:37:56;;;;;;;52.67;31.00;;;19.20;99.90;;;;;;5030398;28;20033;-73
2023/09/12 07:40:21;;;;;;;54.40;33.20;;;19.20;99.90;;;;;;5031266;28;20575;-73
2023/09/12 07:42:47;;;;;;;49.55;33.78;;;19.20;99.90;;;;;;5030285;28;20389;-73
2023/09/12 07:45:13;;;;;;;56.15;32.10;;;19.20;99.90;;;;;;5029979;28;20144;-74
2023/09/12 07:47:39;;;;;;;56.97;34.08;;;19.20;99.90;;;;;;5030178;28;20084;-74
2023/09/12 07:50:06;;;;;;;52.85;32.63;;;19.20;99.90;;;;;;5030996;28;20033;-72
2023/09/12 07:52:32;;;;;;;52.15;34.42;;;19.20;99.90;;;;;;5030091;28;20505;-73
2023/09/12 07:55:02;;;;;;;54.40;32.33;;;19.20;99.90;;;;;;5030295;28;20040;-74
2023/09/12 07:57:29;;;;;;;56.30;34.13;;;19.30;99.90;;;;;;5030111;28;20055;-74
2023/09/12 07:59:56;;;;;;;54.95;33.22;;;19.40;99.90;;;;;;5013191;28;20038;-74
2023/09/12 08:02:21;;;;;;;52.95;33.42;;;19.50;99.90;;;;;;5029965;28;20037;-74
2023/09/12 08:04:48;;;;;;;50.40;33.40;;;19.50;99.90;;;;;;5031148;28;20061;-74
2023/09/12 08:07:14;;;;;;;51.45;32.38;;;19.50;99.90;;;;;;5031070;28;20117;-74
2023/09/12 08:09:53;;;;;;;56.33;33.22;;;19.70;99.90;;;;;;5031031;28;20129;-71
2023/09/12 08:12:20;;;;;;;48.97;30.58;;;19.70;99.90;;;;;;5029502;28;20072;-71
2023/09/12 08:14:45;;;;;;;48.53;31.45;;;19.80;99.90;;;;;;5030748;28;20104;-72
2023/09/12 08:17:12;;;;;;;48.65;32.22;;;20.00;99.90;;;;;;5030302;28;20520;-72
2023/09/12 08:19:38;;;;;;;47.25;31.55;;;20.00;99.90;;;;;;5029091;28;20037;-72
2023/09/12 08:22:04;;;;;;;52.95;32.03;;;19.90;99.90;;;;;;5029451;28;20120;-72
2023/09/12 08:24:30;;;;;;;54.63;32.55;;;19.90;99.90;;;;;;5030898;28;20562;-72
2023/09/12 08:26:55;;;;;;;51.78;32.90;;;19.90;99.90;;;;;;5029669;28;20038;-72
2023/09/12 08:29:21;;;;;;;52.22;33.92;;;19.90;99.90;;;;;;5031983;28;20072;-72
2023/09/12 08:31:49;;;;;;;47.85;31.17;;;19.80;99.90;;;;;;5034413;28;20536;-72
2023/09/12 08:34:15;;;;;;;51.25;31.75;;;19.80;99.90;;;;;;5034605;28;20041;-72
2023/09/12 08:36:40;;;;;;;49.22;30.83;;;19.90;99.90;;;;;;5032909;28;20124;-72
2023/09/12 08:39:09;;;;;;;51.00;32.92;;;19.90;99.90;;;;;;5033560;28;20088;-72
2023/09/12 08:41:34;;;;;;;52.80;33.47;;;20.00;99.90;;;;;;5033867;28;20029;-72
2023/09/12 08:44:01;;;;;;;51.97;34.28;;;19.90;99.90;;;;;;5033819;28;20037;-72
2023/09/12 08:46:27;;;;;;;52.65;32.45;;;20.00;99.90;;;;;;5034039;28;20026;-71
2023/09/12 08:48:55;;;;;;;47.85;31.02;;;20.00;99.90;;;;;;5033700;28;20043;-72
2023/09/12 08:51:23;;;;;;;50.75;32.47;;;20.10;99.90;;;;;;5031611;28;20034;-71
2023/09/12 08:53:50;;;;;;;45.95;31.02;;;20.10;99.90;;;;;;5032538;28;20069;-72
2023/09/12 08:56:16;;;;;;;51.88;33.53;;;20.10;99.90;;;;;;5033580;28;20080;-72
2023/09/12 08:58:42;;;;;;;52.72;32.58;;;20.00;99.90;;;;;;5033239;28;20037;-72
2023/09/12 09:01:10;;;;;;;49.55;31.58;;;20.10;99.90;;;;;;5033732;28;20048;-72
2023/09/12 09:03:37;;;;;;;51.67;31.10;;;20.00;99.90;;;;;;5033398;28;20443;-72
2023/09/12 09:06:05;;;;;;;51.50;32.45;;;20.10;99.90;;;;;;5033620;28;20064;-72
2023/09/12 09:08:32;;;;;;;52.22;31.90;;;20.10;99.90;;;;;;5032867;28;20041;-71
2023/09/12 09:10:59;;;;;;;45.25;30.67;;;20.20;99.90;;;;;;5029894;28;20049;-71
2023/09/12 09:13:27;;;;;;;48.60;31.45;;;20.20;99.90;;;;;;5015985;28;20045;-71
2023/09/12 09:16:13;;;;;;;47.05;30.63;;;20.20;99.90;;;;;;5032493;28;20049;-71
2023/09/12 09:19:01;;;;;;;50.78;30.83;;;20.30;99.90;;;;;;5033342;28;20042;-72
2023/09/12 09:21:32;;;;;;;50.20;31.77;;;20.50;99.90;;;;;;5033771;28;20463;-73
2023/09/12 09:24:03;;;;;;;53.15;31.95;;;20.60;99.90;;;;;;5032704;28;20500;-72
2023/09/12 09:26:46;;;;;;;49.10;30.52;;;20.70;99.90;;;;;;5033482;28;20099;-72
2023/09/12 09:29:16;;;;;;;47.75;29.92;;;20.70;99.90;;;;;;5032290;28;20443;-72
2023/09/12 09:31:42;;;;;;;47.53;30.52;;;20.80;99.90;;;;;;5015563;28;20076;-73
2023/09/12 09:34:13;;;;;;;48.08;30.50;;;20.90;99.90;;;;;;5033095;28;20050;-72
2023/09/12 09:36:43;;;;;;;51.00;31.52;;;21.00;99.90;;;;;;5033520;28;20064;-72
2023/09/12 09:39:09;;;;;;;55.15;32.53;;;21.10;99.90;;;;;;5033269;28;20073;-72
2023/09/12 09:41:35;;;;;;;48.38;31.55;;;21.20;99.90;;;;;;5033217;28;20079;-72
2023/09/12 09:44:01;;;;;;;64.88;38.55;;;21.20;99.90;;;;;;5033202;28;20370;-71
2023/09/12 09:46:27;;;;;;;48.38;30.75;;;21.30;99.90;;;;;;5032982;28;20029;-71
2023/09/12 09:48:53;;;;;;;50.47;32.00;;;21.40;99.90;;;;;;5032615;28;20036;-71
2023/09/12 09:51:19;;;;;;;48.67;31.80;;;21.40;99.90;;;;;;5033099;28;20055;-72
2023/09/12 09:53:44;;;;;;;49.58;31.33;;;21.50;99.90;;;;;;5031686;28;20045;-71
2023/09/12 09:56:12;;;;;;;54.20;32.38;;;21.50;99.90;;;;;;5032963;28;20069;-71
2023/09/12 09:58:56;;;;;;;46.00;30.83;;;21.40;99.90;;;;;;5032486;28;20037;-71
2023/09/12 10:01:24;;;;;;;50.70;32.22;;;21.40;99.90;;;;;;5031524;28;20116;-72
2023/09/12 10:03:51;;;;;;;51.20;32.20;;;21.40;99.90;;;;;;5031717;28;20554;-72
2023/09/12 10:06:17;;;;;;;48.17;31.08;;;21.40;99.90;;;;;;5032822;28;20165;-71
2023/09/12 10:08:52;;;;;;;52.38;33.15;;;21.50;99.90;;;;;;5032470;28;20494;-72
2023/09/12 10:11:22;;;;;;;51.10;33.15;;;21.40;99.90;;;;;;5031429;28;20045;-71
2023/09/12 10:13:54;;;;;;;48.80;32.40;;;21.60;99.90;;;;;;5032484;28;20394;-72
2023/09/12 10:16:24;;;;;;;43.55;29.50;;;21.50;99.90;;;;;;5032182;28;20037;-72
2023/09/12 10:18:58;;;;;;;47.83;29.77;;;21.50;99.90;;;;;;5031869;28;20045;-72
2023/09/12 10:21:31;;;;;;;47.22;30.40;;;21.50;99.90;;;;;;5032210;28;20108;-72
2023/09/12 10:23:59;;;;;;;46.60;31.42;;;21.50;99.90;;;;;;5031009;28;20045;-72
2023/09/12 10:26:25;;;;;;;44.78;30.08;;;21.50;99.90;;;;;;5032193;28;20053;-72
2023/09/12 10:28:51;;;;;;;46.53;29.77;;;21.50;99.90;;;;;;5031787;28;20112;-73
2023/09/12 10:31:17;;;;;;;50.05;29.45;;;21.50;99.90;;;;;;5032064;28;20109;-71
2023/09/12 10:33:44;;;;;;;43.72;28.70;;;21.70;99.90;;;;;;5030511;28;20051;-73
2023/09/12 10:36:12;;;;;;;45.50;29.15;;;21.80;99.90;;;;;;5030842;28;20060;-72
2023/09/12 10:38:44;;;;;;;42.20;27.75;;;21.90;99.90;;;;;;5030556;28;20045;-71
2023/09/12 10:41:11;;;;;;;39.37;26.80;;;21.90;99.90;;;;;;5014437;28;20052;-71
2023/09/12 10:43:39;;;;;;;57.95;29.15;;;21.80;99.90;;;;;;5030820;28;20282;-71
2023/09/12 10:46:05;;;;;;;40.92;26.50;;;21.80;99.90;;;;;;5031913;28;20516;-71
2023/09/12 10:48:32;;;;;;;48.75;28.13;;;21.60;99.90;;;;;;5031626;28;20520;-71
2023/09/12 10:51:00;;;;;;;49.45;30.23;;;21.70;99.90;;;;;;5031937;28;20037;-72
2023/09/12 10:53:28;;;;;;;45.40;27.95;;;21.60;99.90;;;;;;5031481;28;20175;-71
2023/09/12 10:56:18;;;;;;;46.10;27.45;;;21.60;99.90;;;;;;5030925;28;20080;-71
2023/09/12 10:59:04;;;;;;;43.80;27.70;;;21.70;99.90;;;;;;5031740;28;20076;-71
2023/09/12 11:01:34;;;;;;;44.17;28.55;;;21.80;99.90;;;;;;5013926;28;20053;-71
2023/09/12 11:04:18;;;;;;;47.35;28.27;;;21.80;99.90;;;;;;5031720;28;20484;-71
2023/09/12 11:06:44;;;;;;;42.92;26.30;;;21.90;99.90;;;;;;5030636;28;20034;-71
2023/09/12 11:09:18;;;;;;;40.20;24.85;;;22.00;99.90;;;;;;5031475;28;20615;-71
2023/09/12 11:11:48;;;;;;;43.30;26.33;;;22.20;99.90;;;;;;5031813;28;20038;-71
2023/09/12 11:14:15;;;;;;;49.47;26.45;;;22.30;99.90;;;;;;5031686;28;20053;-71
2023/09/12 11:16:41;;;;;;;37.63;26.75;;;22.30;99.90;;;;;;5029837;28;20045;-71
2023/09/12 11:19:26;;;;;;;45.03;27.35;;;22.40;99.90;;;;;;5029640;28;20056;-72
2023/09/12 11:21:53;;;;;;;38.92;26.05;;;22.40;99.90;;;;;;5013908;28;20045;-72
2023/09/12 11:24:20;;;;;;;38.65;23.60;;;22.40;99.90;;;;;;5031653;28;20083;-72
2023/09/12 11:26:59;;;;;;;37.40;24.33;;;22.60;99.90;;;;;;5031255;28;20447;-72
2023/09/12 11:29:36;;;;;;;34.15;23.30;;;22.60;99.90;;;;;;5031318;28;20072;-72
2023/09/12 11:32:03;;;;;;;34.30;23.50;;;22.80;99.90;;;;;;5031667;28;20103;-72
2023/09/12 11:34:36;;;;;;;36.50;23.40;;;22.80;99.90;;;;;;5031594;28;20056;-72
2023/09/12 11:37:03;;;;;;;35.65;25.58;;;22.90;99.90;;;;;;5031250;28;20046;-72
2023/09/12 11:39:31;;;;;;;35.17;24.25;;;22.90;99.90;;;;;;5013242;28;20037;-72
2023/09/12 11:41:59;;;;;;;33.10;22.23;;;23.10;99.90;;;;;;5031681;28;20080;-72
2023/09/12 11:44:26;;;;;;;33.97;23.30;;;23.10;99.90;;;;;;5031163;28;20030;-71
2023/09/12 11:46:53;;;;;;;35.42;23.50;;;23.20;99.90;;;;;;5027936;28;20163;-71
2023/09/12 11:49:19;;;;;;;32.67;22.92;;;23.30;99.90;;;;;;5030643;28;20518;-71
2023/09/12 11:51:48;;;;;;;36.65;24.38;;;23.30;99.90;;;;;;5027053;28;20041;-71
2023/09/12 11:54:17;;;;;;;31.02;22.48;;;23.40;99.90;;;;;;5030989;28;20460;-72
2023/09/12 11:56:42;;;;;;;27.95;19.92;;;23.60;99.90;;;;;;5031466;28;20048;-71
2023/09/12 11:59:08;;;;;;;29.05;20.55;;;23.60;99.90;;;;;;5031044;28;20038;-70
2023/09/12 12:01:33;;;;;;;28.75;20.13;;;23.60;99.90;;;;;;5030048;28;20041;-75
2023/09/12 12:03:59;;;;;;;30.20;21.17;;;23.50;99.90;;;;;;5032190;28;20072;-74
2023/09/12 12:06:25;;;;;;;27.33;20.58;;;23.40;99.90;;;;;;5035087;28;20046;-74
2023/09/12 12:08:54;;;;;;;28.15;19.60;;;23.50;99.90;;;;;;5034835;28;20117;-74
2023/09/12 12:11:20;;;;;;;31.80;20.90;;;23.60;99.90;;;;;;5035269;28;20045;-74
2023/09/12 12:13:45;;;;;;;27.08;19.15;;;23.60;99.90;;;;;;5033776;28;20128;-73
2023/09/12 12:16:15;;;;;;;27.35;19.15;;;23.60;99.90;;;;;;5033622;28;20041;-73
2023/09/12 12:18:41;;;;;;;26.38;17.50;;;23.50;99.90;;;;;;5034517;28;20045;-74
2023/09/12 12:21:06;;;;;;;23.85;17.23;;;23.60;99.90;;;;;;5035035;28;20045;-73
2023/09/12 12:23:32;;;;;;;23.70;17.00;;;23.60;99.90;;;;;;5033892;28;20033;-73
2023/09/12 12:26:03;;;;;;;25.63;17.33;;;23.70;99.90;;;;;;5034753;28;20064;-73
2023/09/12 12:28:30;;;;;;;26.55;17.55;;;23.80;99.90;;;;;;5034546;28;20029;-74